sensor_id;sensor_type;location;lat;lon;timestamp;P1;P2;P0
64138;PMS5003;50435;43.700;-79.318;2022-12-07T00:01:51;16;15;
64138;PMS5003;50435;43.700;-79.318;2022-12-07T00:04:19;22;20;
64138;PMS5003;50435;43.700;-79.318;2022-12-07T00:06:51;14;11;
64138;PMS5003;50435;43.700;-79.318;2022-12-07T00:09:19;18;18;
64138;PMS5003;50435;43.700;-79.318;2022-12-07T00:11:48;16;16;
64138;PMS5003;50435;43.700;-79.318;2022-12-07T00:14:18;15;14;
64138;PMS5003;50435;43.700;-79.318;2022-12-07T00:16:45;17;17;
64138;PMS5003;50435;43.700;-79.318;2022-12-07T00:19:15;19;18;
64138;PMS5003;50435;43.700;-79.318;2022-12-07T00:21:43;15;15;
64138;PMS5003;50435;43.700;-79.318;2022-12-07T00:24:11;18;16;
64138;PMS5003;50435;43.700;-79.318;2022-12-07T00:26:39;18;18;
64138;PMS5003;50435;43.700;-79.318;2022-12-07T00:29:10;22;18;
64138;PMS5003;50435;43.700;-79.318;2022-12-07T00:31:41;17;16;
64138;PMS5003;50435;43.700;-79.318;2022-12-07T00:34:12;19;19;
64138;PMS5003;50435;43.700;-79.318;2022-12-07T00:36:41;25;18;
64138;PMS5003;50435;43.700;-79.318;2022-12-07T00:39:09;22;18;
64138;PMS5003;50435;43.700;-79.318;2022-12-07T00:41:37;22;18;
64138;PMS5003;50435;43.700;-79.318;2022-12-07T00:44:05;17;17;
64138;PMS5003;50435;43.700;-79.318;2022-12-07T00:46:32;24;23;
64138;PMS5003;50435;43.700;-79.318;2022-12-07T00:49:00;19;17;
64138;PMS5003;50435;43.700;-79.318;2022-12-07T00:51:27;18;16;
64138;PMS5003;50435;43.700;-79.318;2022-12-07T00:53:55;21;21;
64138;PMS5003;50435;43.700;-79.318;2022-12-07T00:56:23;18;18;
64138;PMS5003;50435;43.700;-79.318;2022-12-07T00:58:52;19;19;
64138;PMS5003;50435;43.700;-79.318;2022-12-07T01:01:22;21;17;
64138;PMS5003;50435;43.700;-79.318;2022-12-07T01:03:50;17;16;
64138;PMS5003;50435;43.700;-79.318;2022-12-07T01:06:19;19;19;
64138;PMS5003;50435;43.700;-79.318;2022-12-07T01:08:48;24;23;
64138;PMS5003;50435;43.700;-79.318;2022-12-07T01:11:17;23;22;
64138;PMS5003;50435;43.700;-79.318;2022-12-07T01:13:45;24;22;
64138;PMS5003;50435;43.700;-79.318;2022-12-07T01:16:14;19;18;
64138;PMS5003;50435;43.700;-79.318;2022-12-07T01:18:45;25;23;
64138;PMS5003;50435;43.700;-79.318;2022-12-07T01:20:32;23;22;
64138;PMS5003;50435;43.700;-79.318;2022-12-07T01:23:00;25;22;
64138;PMS5003;50435;43.700;-79.318;2022-12-07T01:25:27;18;18;
64138;PMS5003;50435;43.700;-79.318;2022-12-07T01:27:55;26;22;
64138;PMS5003;50435;43.700;-79.318;2022-12-07T01:30:22;21;21;
64138;PMS5003;50435;43.700;-79.318;2022-12-07T01:32:50;23;19;
64138;PMS5003;50435;43.700;-79.318;2022-12-07T01:35:17;21;17;
64138;PMS5003;50435;43.700;-79.318;2022-12-07T01:37:45;23;23;
64138;PMS5003;50435;43.700;-79.318;2022-12-07T01:40:12;28;22;
64138;PMS5003;50435;43.700;-79.318;2022-12-07T01:42:40;25;22;
64138;PMS5003;50435;43.700;-79.318;2022-12-07T01:45:48;19;19;
64138;PMS5003;50435;43.700;-79.318;2022-12-07T01:48:16;24;19;
64138;PMS5003;50435;43.700;-79.318;2022-12-07T01:50:48;24;21;
64138;PMS5003;50435;43.700;-79.318;2022-12-07T01:53:18;21;19;
64138;PMS5003;50435;43.700;-79.318;2022-12-07T01:55:48;24;22;
64138;PMS5003;50435;43.700;-79.318;2022-12-07T01:58:18;24;19;
64138;PMS5003;50435;43.700;-79.318;2022-12-07T02:00:47;25;22;
64138;PMS5003;50435;43.700;-79.318;2022-12-07T02:03:16;21;21;
64138;PMS5003;50435;43.700;-79.318;2022-12-07T02:05:48;24;23;
64138;PMS5003;50435;43.700;-79.318;2022-12-07T02:08:16;18;17;
64138;PMS5003;50435;43.700;-79.318;2022-12-07T02:10:45;19;16;
64138;PMS5003;50435;43.700;-79.318;2022-12-07T02:13:13;23;21;
64138;PMS5003;50435;43.700;-79.318;2022-12-07T02:15:46;18;18;
64138;PMS5003;50435;43.700;-79.318;2022-12-07T02:18:25;23;20;
64138;PMS5003;50435;43.700;-79.318;2022-12-07T02:21:05;23;19;
64138;PMS5003;50435;43.700;-79.318;2022-12-07T02:23:40;25;24;
64138;PMS5003;50435;43.700;-79.318;2022-12-07T02:26:31;27;24;
64138;PMS5003;50435;43.700;-79.318;2022-12-07T02:29:18;19;17;
64138;PMS5003;50435;43.700;-79.318;2022-12-07T02:31:53;23;19;
64138;PMS5003;50435;43.700;-79.318;2022-12-07T02:34:35;18;17;
64138;PMS5003;50435;43.700;-79.318;2022-12-07T02:37:12;21;21;
64138;PMS5003;50435;43.700;-79.318;2022-12-07T02:39:48;27;24;
64138;PMS5003;50435;43.700;-79.318;2022-12-07T02:42:23;19;19;
64138;PMS5003;50435;43.700;-79.318;2022-12-07T02:44:55;21;19;
64138;PMS5003;50435;43.700;-79.318;2022-12-07T02:47:23;22;18;
64138;PMS5003;50435;43.700;-79.318;2022-12-07T02:49:53;18;18;
64138;PMS5003;50435;43.700;-79.318;2022-12-07T02:52:22;27;25;
64138;PMS5003;50435;43.700;-79.318;2022-12-07T02:54:49;24;22;
64138;PMS5003;50435;43.700;-79.318;2022-12-07T02:57:21;19;16;
64138;PMS5003;50435;43.700;-79.318;2022-12-07T03:00:13;24;21;
64138;PMS5003;50435;43.700;-79.318;2022-12-07T03:02:48;22;22;
64138;PMS5003;50435;43.700;-79.318;2022-12-07T03:05:23;30;23;
64138;PMS5003;50435;43.700;-79.318;2022-12-07T03:08:02;24;19;
64138;PMS5003;50435;43.700;-79.318;2022-12-07T03:10:38;22;21;
64138;PMS5003;50435;43.700;-79.318;2022-12-07T03:13:15;18;16;
64138;PMS5003;50435;43.700;-79.318;2022-12-07T03:15:51;27;23;
64138;PMS5003;50435;43.700;-79.318;2022-12-07T03:18:25;29;26;
64138;PMS5003;50435;43.700;-79.318;2022-12-07T03:20:57;25;22;
64138;PMS5003;50435;43.700;-79.318;2022-12-07T03:23:29;27;24;
64138;PMS5003;50435;43.700;-79.318;2022-12-07T03:26:02;21;21;
64138;PMS5003;50435;43.700;-79.318;2022-12-07T03:28:32;24;22;
64138;PMS5003;50435;43.700;-79.318;2022-12-07T03:31:05;24;21;
64138;PMS5003;50435;43.700;-79.318;2022-12-07T03:33:39;28;25;
64138;PMS5003;50435;43.700;-79.318;2022-12-07T03:36:16;22;19;
64138;PMS5003;50435;43.700;-79.318;2022-12-07T03:38:49;22;22;
64138;PMS5003;50435;43.700;-79.318;2022-12-07T03:41:22;25;22;
64138;PMS5003;50435;43.700;-79.318;2022-12-07T03:43:51;21;21;
64138;PMS5003;50435;43.700;-79.318;2022-12-07T03:46:21;22;22;
64138;PMS5003;50435;43.700;-79.318;2022-12-07T03:48:56;26;24;
64138;PMS5003;50435;43.700;-79.318;2022-12-07T03:51:30;21;21;
64138;PMS5003;50435;43.700;-79.318;2022-12-07T03:54:07;25;25;
64138;PMS5003;50435;43.700;-79.318;2022-12-07T03:56:40;26;23;
64138;PMS5003;50435;43.700;-79.318;2022-12-07T03:59:09;24;23;
64138;PMS5003;50435;43.700;-79.318;2022-12-07T04:01:41;23;22;
64138;PMS5003;50435;43.700;-79.318;2022-12-07T04:04:09;27;26;
64138;PMS5003;50435;43.700;-79.318;2022-12-07T04:06:37;22;18;
64138;PMS5003;50435;43.700;-79.318;2022-12-07T04:09:04;27;27;
64138;PMS5003;50435;43.700;-79.318;2022-12-07T04:11:31;27;25;
64138;PMS5003;50435;43.700;-79.318;2022-12-07T04:13:58;19;19;
64138;PMS5003;50435;43.700;-79.318;2022-12-07T04:16:26;32;29;
64138;PMS5003;50435;43.700;-79.318;2022-12-07T04:18:53;28;24;
64138;PMS5003;50435;43.700;-79.318;2022-12-07T04:21:21;29;26;
64138;PMS5003;50435;43.700;-79.318;2022-12-07T04:23:48;28;26;
64138;PMS5003;50435;43.700;-79.318;2022-12-07T04:26:16;30;27;
64138;PMS5003;50435;43.700;-79.318;2022-12-07T04:28:44;27;25;
64138;PMS5003;50435;43.700;-79.318;2022-12-07T04:31:12;28;25;
64138;PMS5003;50435;43.700;-79.318;2022-12-07T04:33:39;27;23;
64138;PMS5003;50435;43.700;-79.318;2022-12-07T04:36:07;29;27;
64138;PMS5003;50435;43.700;-79.318;2022-12-07T04:38:34;28;28;
64138;PMS5003;50435;43.700;-79.318;2022-12-07T04:41:04;23;23;
64138;PMS5003;50435;43.700;-79.318;2022-12-07T04:43:32;27;25;
64138;PMS5003;50435;43.700;-79.318;2022-12-07T04:46:00;25;23;
64138;PMS5003;50435;43.700;-79.318;2022-12-07T04:48:28;30;27;
64138;PMS5003;50435;43.700;-79.318;2022-12-07T04:50:56;26;22;
64138;PMS5003;50435;43.700;-79.318;2022-12-07T04:53:23;26;23;
64138;PMS5003;50435;43.700;-79.318;2022-12-07T04:55:50;23;23;
64138;PMS5003;50435;43.700;-79.318;2022-12-07T04:58:18;27;26;
64138;PMS5003;50435;43.700;-79.318;2022-12-07T05:00:45;27;26;
64138;PMS5003;50435;43.700;-79.318;2022-12-07T05:03:13;27;23;
64138;PMS5003;50435;43.700;-79.318;2022-12-07T05:05:41;22;22;
64138;PMS5003;50435;43.700;-79.318;2022-12-07T05:08:08;27;22;
64138;PMS5003;50435;43.700;-79.318;2022-12-07T05:10:35;25;24;
64138;PMS5003;50435;43.700;-79.318;2022-12-07T05:13:03;25;23;
64138;PMS5003;50435;43.700;-79.318;2022-12-07T05:15:31;30;27;
64138;PMS5003;50435;43.700;-79.318;2022-12-07T05:17:59;29;23;
64138;PMS5003;50435;43.700;-79.318;2022-12-07T05:20:26;28;25;
64138;PMS5003;50435;43.700;-79.318;2022-12-07T05:22:54;34;26;
64138;PMS5003;50435;43.700;-79.318;2022-12-07T05:25:22;30;24;
64138;PMS5003;50435;43.700;-79.318;2022-12-07T05:27:49;28;25;
64138;PMS5003;50435;43.700;-79.318;2022-12-07T05:30:17;30;25;
64138;PMS5003;50435;43.700;-79.318;2022-12-07T05:32:45;34;30;
64138;PMS5003;50435;43.700;-79.318;2022-12-07T05:35:13;25;25;
64138;PMS5003;50435;43.700;-79.318;2022-12-07T05:37:40;29;23;
64138;PMS5003;50435;43.700;-79.318;2022-12-07T05:42:18;27;24;
64138;PMS5003;50435;43.700;-79.318;2022-12-07T05:44:46;26;24;
64138;PMS5003;50435;43.700;-79.318;2022-12-07T05:47:14;26;24;
64138;PMS5003;50435;43.700;-79.318;2022-12-07T05:49:41;22;22;
64138;PMS5003;50435;43.700;-79.318;2022-12-07T05:52:09;25;25;
64138;PMS5003;50435;43.700;-79.318;2022-12-07T05:54:36;25;20;
64138;PMS5003;50435;43.700;-79.318;2022-12-07T05:57:03;25;24;
64138;PMS5003;50435;43.700;-79.318;2022-12-07T05:59:30;25;23;
64138;PMS5003;50435;43.700;-79.318;2022-12-07T06:01:59;31;27;
64138;PMS5003;50435;43.700;-79.318;2022-12-07T06:04:29;23;23;
64138;PMS5003;50435;43.700;-79.318;2022-12-07T06:06:58;24;20;
64138;PMS5003;50435;43.700;-79.318;2022-12-07T06:09:26;25;23;
64138;PMS5003;50435;43.700;-79.318;2022-12-07T06:11:55;29;24;
64138;PMS5003;50435;43.700;-79.318;2022-12-07T06:14:23;23;23;
64138;PMS5003;50435;43.700;-79.318;2022-12-07T06:16:51;30;28;
64138;PMS5003;50435;43.700;-79.318;2022-12-07T06:19:18;27;26;
64138;PMS5003;50435;43.700;-79.318;2022-12-07T06:21:47;27;25;
64138;PMS5003;50435;43.700;-79.318;2022-12-07T06:24:14;26;24;
64138;PMS5003;50435;43.700;-79.318;2022-12-07T06:26:42;25;23;
64138;PMS5003;50435;43.700;-79.318;2022-12-07T06:29:11;27;23;
64138;PMS5003;50435;43.700;-79.318;2022-12-07T06:31:40;30;29;
64138;PMS5003;50435;43.700;-79.318;2022-12-07T06:34:08;26;25;
64138;PMS5003;50435;43.700;-79.318;2022-12-07T06:36:38;29;28;
64138;PMS5003;50435;43.700;-79.318;2022-12-07T06:39:06;25;24;
64138;PMS5003;50435;43.700;-79.318;2022-12-07T06:41:34;34;30;
64138;PMS5003;50435;43.700;-79.318;2022-12-07T06:44:02;30;27;
64138;PMS5003;50435;43.700;-79.318;2022-12-07T06:46:30;27;24;
64138;PMS5003;50435;43.700;-79.318;2022-12-07T06:48:57;24;23;
64138;PMS5003;50435;43.700;-79.318;2022-12-07T06:51:24;30;27;
64138;PMS5003;50435;43.700;-79.318;2022-12-07T06:53:52;27;27;
64138;PMS5003;50435;43.700;-79.318;2022-12-07T06:56:20;31;30;
64138;PMS5003;50435;43.700;-79.318;2022-12-07T06:58:47;31;24;
64138;PMS5003;50435;43.700;-79.318;2022-12-07T07:01:16;29;26;
64138;PMS5003;50435;43.700;-79.318;2022-12-07T07:03:45;32;28;
64138;PMS5003;50435;43.700;-79.318;2022-12-07T07:06:12;27;25;
64138;PMS5003;50435;43.700;-79.318;2022-12-07T07:08:40;33;27;
64138;PMS5003;50435;43.700;-79.318;2022-12-07T07:11:09;27;24;
64138;PMS5003;50435;43.700;-79.318;2022-12-07T07:13:37;28;26;
64138;PMS5003;50435;43.700;-79.318;2022-12-07T07:16:05;30;26;
64138;PMS5003;50435;43.700;-79.318;2022-12-07T07:18:34;27;27;
64138;PMS5003;50435;43.700;-79.318;2022-12-07T07:21:01;31;26;
64138;PMS5003;50435;43.700;-79.318;2022-12-07T07:23:29;29;28;
64138;PMS5003;50435;43.700;-79.318;2022-12-07T07:25:57;27;25;
64138;PMS5003;50435;43.700;-79.318;2022-12-07T07:28:24;23;21;
64138;PMS5003;50435;43.700;-79.318;2022-12-07T07:30:52;27;20;
64138;PMS5003;50435;43.700;-79.318;2022-12-07T07:33:19;30;23;
64138;PMS5003;50435;43.700;-79.318;2022-12-07T07:35:47;28;24;
64138;PMS5003;50435;43.700;-79.318;2022-12-07T07:38:14;32;27;
64138;PMS5003;50435;43.700;-79.318;2022-12-07T07:40:42;33;30;
64138;PMS5003;50435;43.700;-79.318;2022-12-07T07:43:09;28;25;
64138;PMS5003;50435;43.700;-79.318;2022-12-07T07:45:37;30;27;
64138;PMS5003;50435;43.700;-79.318;2022-12-07T07:48:05;26;22;
64138;PMS5003;50435;43.700;-79.318;2022-12-07T07:50:32;29;24;
64138;PMS5003;50435;43.700;-79.318;2022-12-07T07:52:59;30;27;
64138;PMS5003;50435;43.700;-79.318;2022-12-07T07:55:27;26;24;
64138;PMS5003;50435;43.700;-79.318;2022-12-07T07:57:55;28;27;
64138;PMS5003;50435;43.700;-79.318;2022-12-07T08:00:22;31;25;
64138;PMS5003;50435;43.700;-79.318;2022-12-07T08:02:50;28;25;
64138;PMS5003;50435;43.700;-79.318;2022-12-07T08:05:17;31;30;
64138;PMS5003;50435;43.700;-79.318;2022-12-07T08:07:45;31;28;
64138;PMS5003;50435;43.700;-79.318;2022-12-07T08:10:13;30;29;
64138;PMS5003;50435;43.700;-79.318;2022-12-07T08:12:41;27;24;
64138;PMS5003;50435;43.700;-79.318;2022-12-07T08:15:10;28;26;
64138;PMS5003;50435;43.700;-79.318;2022-12-07T08:17:37;27;21;
64138;PMS5003;50435;43.700;-79.318;2022-12-07T08:20:05;31;29;
64138;PMS5003;50435;43.700;-79.318;2022-12-07T08:22:34;25;21;
64138;PMS5003;50435;43.700;-79.318;2022-12-07T08:25:01;32;28;
64138;PMS5003;50435;43.700;-79.318;2022-12-07T08:27:29;25;25;
64138;PMS5003;50435;43.700;-79.318;2022-12-07T08:29:56;27;22;
64138;PMS5003;50435;43.700;-79.318;2022-12-07T08:32:24;29;26;
64138;PMS5003;50435;43.700;-79.318;2022-12-07T08:34:51;30;27;
64138;PMS5003;50435;43.700;-79.318;2022-12-07T08:37:19;35;26;
64138;PMS5003;50435;43.700;-79.318;2022-12-07T08:39:46;32;29;
64138;PMS5003;50435;43.700;-79.318;2022-12-07T08:42:14;28;24;
64138;PMS5003;50435;43.700;-79.318;2022-12-07T08:44:41;36;31;
64138;PMS5003;50435;43.700;-79.318;2022-12-07T08:47:09;26;22;
64138;PMS5003;50435;43.700;-79.318;2022-12-07T08:49:38;31;26;
64138;PMS5003;50435;43.700;-79.318;2022-12-07T08:52:07;30;26;
64138;PMS5003;50435;43.700;-79.318;2022-12-07T08:54:35;29;27;
64138;PMS5003;50435;43.700;-79.318;2022-12-07T08:57:05;28;25;
64138;PMS5003;50435;43.700;-79.318;2022-12-07T08:59:34;31;25;
64138;PMS5003;50435;43.700;-79.318;2022-12-07T09:02:04;33;28;
64138;PMS5003;50435;43.700;-79.318;2022-12-07T09:04:31;25;20;
64138;PMS5003;50435;43.700;-79.318;2022-12-07T09:06:59;27;24;
64138;PMS5003;50435;43.700;-79.318;2022-12-07T09:09:27;31;27;
64138;PMS5003;50435;43.700;-79.318;2022-12-07T09:11:54;31;28;
64138;PMS5003;50435;43.700;-79.318;2022-12-07T09:14:22;29;28;
64138;PMS5003;50435;43.700;-79.318;2022-12-07T09:16:50;25;25;
64138;PMS5003;50435;43.700;-79.318;2022-12-07T09:19:17;33;28;
64138;PMS5003;50435;43.700;-79.318;2022-12-07T09:21:44;33;29;
64138;PMS5003;50435;43.700;-79.318;2022-12-07T09:24:12;30;28;
64138;PMS5003;50435;43.700;-79.318;2022-12-07T09:26:40;35;29;
64138;PMS5003;50435;43.700;-79.318;2022-12-07T09:29:07;32;28;
64138;PMS5003;50435;43.700;-79.318;2022-12-07T09:31:36;34;30;
64138;PMS5003;50435;43.700;-79.318;2022-12-07T09:34:04;32;27;
64138;PMS5003;50435;43.700;-79.318;2022-12-07T09:36:31;32;30;
64138;PMS5003;50435;43.700;-79.318;2022-12-07T09:38:59;32;28;
64138;PMS5003;50435;43.700;-79.318;2022-12-07T09:41:26;30;28;
64138;PMS5003;50435;43.700;-79.318;2022-12-07T09:43:57;32;27;
64138;PMS5003;50435;43.700;-79.318;2022-12-07T09:46:32;27;27;
64138;PMS5003;50435;43.700;-79.318;2022-12-07T09:49:03;32;28;
64138;PMS5003;50435;43.700;-79.318;2022-12-07T09:51:31;37;30;
64138;PMS5003;50435;43.700;-79.318;2022-12-07T09:53:58;29;28;
64138;PMS5003;50435;43.700;-79.318;2022-12-07T09:56:28;31;28;
64138;PMS5003;50435;43.700;-79.318;2022-12-07T09:58:59;36;29;
64138;PMS5003;50435;43.700;-79.318;2022-12-07T10:01:29;36;31;
64138;PMS5003;50435;43.700;-79.318;2022-12-07T10:04:01;32;29;
64138;PMS5003;50435;43.700;-79.318;2022-12-07T10:06:38;37;32;
64138;PMS5003;50435;43.700;-79.318;2022-12-07T10:09:09;34;32;
64138;PMS5003;50435;43.700;-79.318;2022-12-07T10:12:04;34;27;
64138;PMS5003;50435;43.700;-79.318;2022-12-07T10:14:33;38;34;
64138;PMS5003;50435;43.700;-79.318;2022-12-07T10:17:05;32;28;
64138;PMS5003;50435;43.700;-79.318;2022-12-07T10:20:23;35;33;
64138;PMS5003;50435;43.700;-79.318;2022-12-07T10:22:56;36;33;
64138;PMS5003;50435;43.700;-79.318;2022-12-07T10:25:26;47;42;
64138;PMS5003;50435;43.700;-79.318;2022-12-07T10:27:57;36;33;
64138;PMS5003;50435;43.700;-79.318;2022-12-07T10:30:28;42;39;
64138;PMS5003;50435;43.700;-79.318;2022-12-07T10:32:56;38;30;
64138;PMS5003;50435;43.700;-79.318;2022-12-07T10:35:25;36;31;
64138;PMS5003;50435;43.700;-79.318;2022-12-07T10:37:54;34;31;
64138;PMS5003;50435;43.700;-79.318;2022-12-07T10:40:25;33;31;
64138;PMS5003;50435;43.700;-79.318;2022-12-07T10:43:04;34;34;
64138;PMS5003;50435;43.700;-79.318;2022-12-07T10:45:44;38;30;
64138;PMS5003;50435;43.700;-79.318;2022-12-07T10:48:31;38;35;
64138;PMS5003;50435;43.700;-79.318;2022-12-07T10:51:06;36;34;
64138;PMS5003;50435;43.700;-79.318;2022-12-07T10:53:45;39;33;
64138;PMS5003;50435;43.700;-79.318;2022-12-07T10:56:54;43;36;
64138;PMS5003;50435;43.700;-79.318;2022-12-07T10:59:38;43;38;
64138;PMS5003;50435;43.700;-79.318;2022-12-07T11:02:25;39;31;
64138;PMS5003;50435;43.700;-79.318;2022-12-07T11:05:06;37;36;
64138;PMS5003;50435;43.700;-79.318;2022-12-07T11:07:47;42;38;
64138;PMS5003;50435;43.700;-79.318;2022-12-07T11:10:22;42;38;
64138;PMS5003;50435;43.700;-79.318;2022-12-07T11:13:02;42;37;
64138;PMS5003;50435;43.700;-79.318;2022-12-07T11:15:45;40;33;
64138;PMS5003;50435;43.700;-79.318;2022-12-07T11:18:23;40;38;
64138;PMS5003;50435;43.700;-79.318;2022-12-07T11:20:56;38;35;
64138;PMS5003;50435;43.700;-79.318;2022-12-07T11:23:38;39;37;
64138;PMS5003;50435;43.700;-79.318;2022-12-07T11:26:14;40;36;
64138;PMS5003;50435;43.700;-79.318;2022-12-07T11:28:58;52;46;
64138;PMS5003;50435;43.700;-79.318;2022-12-07T11:31:38;32;30;
64138;PMS5003;50435;43.700;-79.318;2022-12-07T11:34:21;42;37;
64138;PMS5003;50435;43.700;-79.318;2022-12-07T11:36:54;55;48;
64138;PMS5003;50435;43.700;-79.318;2022-12-07T11:39:25;42;37;
64138;PMS5003;50435;43.700;-79.318;2022-12-07T11:41:56;48;39;
64138;PMS5003;50435;43.700;-79.318;2022-12-07T11:44:30;47;40;
64138;PMS5003;50435;43.700;-79.318;2022-12-07T11:47:05;38;35;
64138;PMS5003;50435;43.700;-79.318;2022-12-07T11:49:40;41;37;
64138;PMS5003;50435;43.700;-79.318;2022-12-07T11:52:12;38;33;
64138;PMS5003;50435;43.700;-79.318;2022-12-07T11:54:47;49;40;
64138;PMS5003;50435;43.700;-79.318;2022-12-07T11:57:20;47;40;
64138;PMS5003;50435;43.700;-79.318;2022-12-07T11:59:53;46;40;
64138;PMS5003;50435;43.700;-79.318;2022-12-07T12:02:28;39;37;
64138;PMS5003;50435;43.700;-79.318;2022-12-07T12:05:06;44;34;
64138;PMS5003;50435;43.700;-79.318;2022-12-07T12:07:42;46;38;
64138;PMS5003;50435;43.700;-79.318;2022-12-07T12:10:15;43;38;
64138;PMS5003;50435;43.700;-79.318;2022-12-07T12:12:54;42;36;
64138;PMS5003;50435;43.700;-79.318;2022-12-07T12:15:38;37;36;
64138;PMS5003;50435;43.700;-79.318;2022-12-07T12:18:23;43;38;
64138;PMS5003;50435;43.700;-79.318;2022-12-07T12:21:02;41;36;
64138;PMS5003;50435;43.700;-79.318;2022-12-07T12:23:35;35;31;
64138;PMS5003;50435;43.700;-79.318;2022-12-07T12:26:07;41;36;
64138;PMS5003;50435;43.700;-79.318;2022-12-07T12:28:50;39;34;
64138;PMS5003;50435;43.700;-79.318;2022-12-07T12:31:31;48;43;
64138;PMS5003;50435;43.700;-79.318;2022-12-07T12:34:02;38;33;
64138;PMS5003;50435;43.700;-79.318;2022-12-07T12:36:47;40;33;
64138;PMS5003;50435;43.700;-79.318;2022-12-07T12:39:15;40;38;
64138;PMS5003;50435;43.700;-79.318;2022-12-07T12:41:52;47;42;
64138;PMS5003;50435;43.700;-79.318;2022-12-07T12:44:38;36;35;
64138;PMS5003;50435;43.700;-79.318;2022-12-07T12:47:39;42;34;
64138;PMS5003;50435;43.700;-79.318;2022-12-07T12:50:15;37;33;
64138;PMS5003;50435;43.700;-79.318;2022-12-07T12:52:47;41;34;
64138;PMS5003;50435;43.700;-79.318;2022-12-07T12:55:22;37;33;
64138;PMS5003;50435;43.700;-79.318;2022-12-07T12:58:43;50;42;
64138;PMS5003;50435;43.700;-79.318;2022-12-07T13:01:44;35;32;
64138;PMS5003;50435;43.700;-79.318;2022-12-07T13:04:16;39;36;
64138;PMS5003;50435;43.700;-79.318;2022-12-07T13:06:50;42;37;
64138;PMS5003;50435;43.700;-79.318;2022-12-07T13:09:20;46;36;
64138;PMS5003;50435;43.700;-79.318;2022-12-07T13:11:55;35;32;
64138;PMS5003;50435;43.700;-79.318;2022-12-07T13:14:40;34;29;
64138;PMS5003;50435;43.700;-79.318;2022-12-07T13:17:09;43;37;
64138;PMS5003;50435;43.700;-79.318;2022-12-07T13:19:57;42;36;
64138;PMS5003;50435;43.700;-79.318;2022-12-07T13:22:34;38;30;
64138;PMS5003;50435;43.700;-79.318;2022-12-07T13:25:08;37;34;
64138;PMS5003;50435;43.700;-79.318;2022-12-07T13:27:39;40;33;
64138;PMS5003;50435;43.700;-79.318;2022-12-07T13:30:13;37;32;
64138;PMS5003;50435;43.700;-79.318;2022-12-07T13:31:51;37;32;
64138;PMS5003;50435;43.700;-79.318;2022-12-07T13:34:29;36;33;
64138;PMS5003;50435;43.700;-79.318;2022-12-07T13:36:58;39;36;
64138;PMS5003;50435;43.700;-79.318;2022-12-07T13:39:28;43;40;
64138;PMS5003;50435;43.700;-79.318;2022-12-07T13:41:57;38;31;
64138;PMS5003;50435;43.700;-79.318;2022-12-07T13:44:25;48;41;
64138;PMS5003;50435;43.700;-79.318;2022-12-07T13:46:57;32;31;
64138;PMS5003;50435;43.700;-79.318;2022-12-07T13:49:32;43;38;
64138;PMS5003;50435;43.700;-79.318;2022-12-07T13:52:12;38;32;
64138;PMS5003;50435;43.700;-79.318;2022-12-07T13:54:43;40;35;
64138;PMS5003;50435;43.700;-79.318;2022-12-07T13:57:12;33;30;
64138;PMS5003;50435;43.700;-79.318;2022-12-07T13:59:39;42;36;
64138;PMS5003;50435;43.700;-79.318;2022-12-07T14:02:16;37;34;
64138;PMS5003;50435;43.700;-79.318;2022-12-07T14:04:45;47;41;
64138;PMS5003;50435;43.700;-79.318;2022-12-07T14:07:19;46;41;
64138;PMS5003;50435;43.700;-79.318;2022-12-07T14:09:57;40;37;
64138;PMS5003;50435;43.700;-79.318;2022-12-07T14:14:05;45;39;
64138;PMS5003;50435;43.700;-79.318;2022-12-07T14:16:33;41;34;
64138;PMS5003;50435;43.700;-79.318;2022-12-07T14:19:04;42;35;
64138;PMS5003;50435;43.700;-79.318;2022-12-07T14:22:06;40;33;
64138;PMS5003;50435;43.700;-79.318;2022-12-07T14:24:40;39;35;
64138;PMS5003;50435;43.700;-79.318;2022-12-07T14:27:16;43;37;
64138;PMS5003;50435;43.700;-79.318;2022-12-07T14:29:45;39;35;
64138;PMS5003;50435;43.700;-79.318;2022-12-07T14:32:21;39;36;
64138;PMS5003;50435;43.700;-79.318;2022-12-07T14:34:54;39;31;
64138;PMS5003;50435;43.700;-79.318;2022-12-07T14:37:23;41;32;
64138;PMS5003;50435;43.700;-79.318;2022-12-07T14:39:51;35;33;
64138;PMS5003;50435;43.700;-79.318;2022-12-07T14:42:19;38;36;
64138;PMS5003;50435;43.700;-79.318;2022-12-07T14:44:47;38;36;
64138;PMS5003;50435;43.700;-79.318;2022-12-07T14:47:15;28;27;
64138;PMS5003;50435;43.700;-79.318;2022-12-07T14:49:42;35;30;
64138;PMS5003;50435;43.700;-79.318;2022-12-07T14:52:11;33;28;
64138;PMS5003;50435;43.700;-79.318;2022-12-07T14:54:43;31;29;
64138;PMS5003;50435;43.700;-79.318;2022-12-07T14:57:11;38;33;
64138;PMS5003;50435;43.700;-79.318;2022-12-07T14:59:38;36;33;
64138;PMS5003;50435;43.700;-79.318;2022-12-07T15:02:09;32;22;
64138;PMS5003;50435;43.700;-79.318;2022-12-07T15:04:39;26;26;
64138;PMS5003;50435;43.700;-79.318;2022-12-07T15:07:10;33;25;
64138;PMS5003;50435;43.700;-79.318;2022-12-07T15:09:41;30;29;
64138;PMS5003;50435;43.700;-79.318;2022-12-07T15:12:09;30;26;
64138;PMS5003;50435;43.700;-79.318;2022-12-07T15:14:37;29;25;
64138;PMS5003;50435;43.700;-79.318;2022-12-07T15:17:04;28;28;
64138;PMS5003;50435;43.700;-79.318;2022-12-07T15:19:32;28;27;
64138;PMS5003;50435;43.700;-79.318;2022-12-07T15:21:59;31;28;
64138;PMS5003;50435;43.700;-79.318;2022-12-07T15:24:27;33;22;
64138;PMS5003;50435;43.700;-79.318;2022-12-07T15:26:54;25;24;
64138;PMS5003;50435;43.700;-79.318;2022-12-07T15:29:22;27;26;
64138;PMS5003;50435;43.700;-79.318;2022-12-07T15:31:49;28;23;
64138;PMS5003;50435;43.700;-79.318;2022-12-07T15:34:17;27;26;
64138;PMS5003;50435;43.700;-79.318;2022-12-07T15:36:45;30;25;
64138;PMS5003;50435;43.700;-79.318;2022-12-07T15:39:12;33;30;
64138;PMS5003;50435;43.700;-79.318;2022-12-07T15:41:40;30;26;
64138;PMS5003;50435;43.700;-79.318;2022-12-07T15:44:08;29;25;
64138;PMS5003;50435;43.700;-79.318;2022-12-07T15:46:38;25;25;
64138;PMS5003;50435;43.700;-79.318;2022-12-07T15:49:09;27;24;
64138;PMS5003;50435;43.700;-79.318;2022-12-07T15:51:39;30;22;
64138;PMS5003;50435;43.700;-79.318;2022-12-07T15:54:07;29;24;
64138;PMS5003;50435;43.700;-79.318;2022-12-07T15:56:38;30;25;
64138;PMS5003;50435;43.700;-79.318;2022-12-07T15:59:05;23;23;
64138;PMS5003;50435;43.700;-79.318;2022-12-07T16:01:33;36;23;
64138;PMS5003;50435;43.700;-79.318;2022-12-07T16:04:00;28;25;
64138;PMS5003;50435;43.700;-79.318;2022-12-07T16:06:28;24;22;
64138;PMS5003;50435;43.700;-79.318;2022-12-07T16:08:55;28;24;
64138;PMS5003;50435;43.700;-79.318;2022-12-07T16:13:02;25;20;
64138;PMS5003;50435;43.700;-79.318;2022-12-07T16:15:29;26;23;
64138;PMS5003;50435;43.700;-79.318;2022-12-07T16:17:57;23;21;